createdAt,value
2022-10-28T00:01:17.828Z,56.90
2022-10-28T00:03:50.749Z,57.10
2022-10-28T00:06:30.257Z,57.10
2022-10-28T00:08:57.193Z,57.10
2022-10-28T00:11:26.220Z,56.90
2022-10-28T00:13:54.961Z,57.10
2022-10-28T00:16:27.102Z,57.20
2022-10-28T00:18:54.528Z,57.50
2022-10-28T00:21:25.264Z,57.20
2022-10-28T00:23:52.544Z,57.40
2022-10-28T00:26:22.238Z,57.40
2022-10-28T00:28:55.574Z,57.60
2022-10-28T00:31:24.365Z,57.90
2022-10-28T00:33:51.957Z,57.60
2022-10-28T00:36:21.633Z,57.60
2022-10-28T00:38:50.458Z,57.70
2022-10-28T00:41:38.582Z,57.80
2022-10-28T00:44:39.237Z,57.90
2022-10-28T00:47:22.994Z,58.50
2022-10-28T00:49:51.989Z,57.90
2022-10-28T00:52:23.753Z,57.90
2022-10-28T00:54:51.703Z,58.00
2022-10-28T00:57:24.846Z,58.00
2022-10-28T00:59:53.487Z,58.20
2022-10-28T01:02:21.133Z,58.20
2022-10-28T01:04:48.415Z,58.10
2022-10-28T01:07:16.987Z,58.10
2022-10-28T01:09:44.351Z,58.10
2022-10-28T01:12:32.109Z,58.00
2022-10-28T01:15:19.454Z,58.60
2022-10-28T01:18:24.257Z,58.30
2022-10-28T01:21:01.149Z,59.10
2022-10-28T01:23:58.624Z,58.70
2022-10-28T01:26:49.702Z,58.90
2022-10-28T01:29:40.218Z,58.70
2022-10-28T01:33:03.661Z,58.30
2022-10-28T01:36:18.347Z,59.40
2022-10-28T01:38:54.343Z,59.50
2022-10-28T01:41:58.508Z,58.50
2022-10-28T01:44:34.141Z,59.00
2022-10-28T01:47:22.594Z,58.50
2022-10-28T01:49:52.294Z,59.10
2022-10-28T01:52:23.387Z,58.90
2022-10-28T01:54:55.754Z,58.90
2022-10-28T01:57:25.417Z,58.90
2022-10-28T01:59:53.120Z,58.90
2022-10-28T02:02:19.849Z,58.90
2022-10-28T02:04:46.482Z,58.90
2022-10-28T02:07:13.721Z,58.90
2022-10-28T02:10:02.858Z,58.90
2022-10-28T02:12:35.618Z,59.60
2022-10-28T02:15:20.806Z,59.00
2022-10-28T02:17:55.227Z,59.50
2022-10-28T02:20:24.957Z,58.90
2022-10-28T02:23:06.432Z,58.90
2022-10-28T02:25:39.688Z,59.10
2022-10-28T02:28:12.887Z,58.90
2022-10-28T02:30:54.924Z,59.00
2022-10-28T02:33:26.335Z,59.20
2022-10-28T02:35:58.696Z,58.90
2022-10-28T02:38:31.856Z,59.10
2022-10-28T02:41:02.113Z,59.20
2022-10-28T02:43:32.873Z,59.20
2022-10-28T02:46:03.308Z,59.30
2022-10-28T02:48:41.201Z,59.50
2022-10-28T02:51:18.771Z,59.90
2022-10-28T02:54:07.492Z,59.70
2022-10-28T02:56:52.894Z,60.50
2022-10-28T02:59:19.828Z,59.90
2022-10-28T03:01:46.548Z,59.70
2022-10-28T03:04:13.380Z,59.80
2022-10-28T03:06:39.995Z,60.00
2022-10-28T03:09:06.831Z,60.00
2022-10-28T03:11:33.942Z,60.10
2022-10-28T03:14:00.767Z,60.90
2022-10-28T03:16:27.467Z,60.30
2022-10-28T03:18:54.209Z,60.40
2022-10-28T03:21:20.970Z,60.40
2022-10-28T03:23:47.939Z,60.30
2022-10-28T03:26:14.585Z,60.30
2022-10-28T03:28:41.328Z,60.30
2022-10-28T03:31:08.318Z,60.40
2022-10-28T03:33:35.038Z,60.50
2022-10-28T03:36:01.769Z,60.50
2022-10-28T03:38:29.293Z,60.50
2022-10-28T03:40:56.006Z,60.60
2022-10-28T03:43:22.630Z,60.60
2022-10-28T03:45:49.477Z,60.70
2022-10-28T03:48:16.342Z,60.70
2022-10-28T03:50:43.594Z,60.80
2022-10-28T03:53:10.282Z,60.80
2022-10-28T03:55:37.109Z,60.70
2022-10-28T03:58:04.148Z,60.60
2022-10-28T04:00:30.844Z,60.40
2022-10-28T04:02:57.543Z,60.40
2022-10-28T04:05:24.473Z,60.60
2022-10-28T04:07:51.316Z,60.60
2022-10-28T04:10:17.937Z,60.70
2022-10-28T04:12:44.725Z,60.80
2022-10-28T04:15:11.429Z,61.70
2022-10-28T04:17:38.345Z,61.00
2022-10-28T04:20:05.389Z,61.00
2022-10-28T04:22:32.419Z,61.00
2022-10-28T04:24:59.198Z,61.00
2022-10-28T04:27:25.818Z,61.00
2022-10-28T04:29:52.611Z,61.10
2022-10-28T04:32:19.262Z,61.10
2022-10-28T04:34:45.982Z,61.00
2022-10-28T04:37:15.845Z,61.10
2022-10-28T04:39:43.822Z,61.80
2022-10-28T04:42:10.526Z,61.00
2022-10-28T04:44:37.274Z,61.00
2022-10-28T04:47:04.122Z,60.90
2022-10-28T04:49:32.398Z,61.00
2022-10-28T04:52:02.343Z,61.00
2022-10-28T04:54:29.484Z,61.00
2022-10-28T04:56:56.381Z,61.00
2022-10-28T04:59:23.149Z,61.30
2022-10-28T05:01:50.037Z,61.30
2022-10-28T05:04:16.970Z,61.40
2022-10-28T05:06:44.144Z,61.50
2022-10-28T05:09:10.976Z,61.50
2022-10-28T05:11:38.158Z,61.50
2022-10-28T05:14:04.874Z,61.60
2022-10-28T05:16:31.632Z,61.70
2022-10-28T05:18:58.624Z,61.70
2022-10-28T05:21:25.294Z,61.60
2022-10-28T05:23:52.174Z,61.70
2022-10-28T05:26:19.134Z,61.80
2022-10-28T05:28:50.727Z,62.00
2022-10-28T05:31:18.136Z,62.30
2022-10-28T05:33:45.173Z,62.20
2022-10-28T05:36:11.797Z,62.30
2022-10-28T05:38:39.979Z,62.40
2022-10-28T05:41:06.608Z,62.60
2022-10-28T05:43:33.334Z,62.70
2022-10-28T05:46:00.149Z,62.90
2022-10-28T05:48:26.833Z,62.90
2022-10-28T05:50:53.534Z,62.90
2022-10-28T05:53:20.164Z,62.90
2022-10-28T05:55:47.907Z,62.90
2022-10-28T05:58:15.081Z,63.00
2022-10-28T06:00:41.876Z,63.20
2022-10-28T06:03:12.030Z,63.40
2022-10-28T06:05:41.858Z,63.60
2022-10-28T06:08:08.704Z,63.50
2022-10-28T06:10:35.475Z,63.40
2022-10-28T06:13:00.828Z,63.40
2022-10-28T06:15:27.571Z,63.50
2022-10-28T06:17:54.235Z,63.70
2022-10-28T06:20:20.952Z,63.70
2022-10-28T06:22:52.706Z,63.80
2022-10-28T06:25:21.309Z,63.90
2022-10-28T06:27:53.123Z,64.10
2022-10-28T06:30:20.193Z,64.50
2022-10-28T06:32:46.960Z,64.50
2022-10-28T06:35:13.830Z,64.70
2022-10-28T06:37:40.553Z,64.70
2022-10-28T06:40:07.885Z,64.70
2022-10-28T06:42:34.591Z,64.70
2022-10-28T06:45:01.481Z,64.60
2022-10-28T06:47:29.672Z,64.80
2022-10-28T06:49:56.298Z,64.80
2022-10-28T06:52:23.087Z,64.90
2022-10-28T06:54:49.878Z,64.90
2022-10-28T06:57:16.497Z,65.00
2022-10-28T06:59:43.476Z,65.00
2022-10-28T07:02:12.013Z,64.90
2022-10-28T07:04:38.912Z,65.00
2022-10-28T07:07:05.683Z,64.80
2022-10-28T07:09:33.535Z,64.90
2022-10-28T07:12:04.897Z,65.00
2022-10-28T07:14:34.619Z,65.10
2022-10-28T07:17:01.582Z,65.00
2022-10-28T07:19:28.216Z,64.90
2022-10-28T07:21:55.516Z,64.90
2022-10-28T07:24:22.217Z,65.00
2022-10-28T07:26:51.976Z,65.20
2022-10-28T07:29:20.867Z,65.40
2022-10-28T07:31:47.738Z,65.50
2022-10-28T07:34:14.568Z,65.60
2022-10-28T07:36:41.319Z,65.70
2022-10-28T07:39:09.310Z,65.70
2022-10-28T07:41:37.802Z,65.80
2022-10-28T07:44:04.463Z,66.10
2022-10-28T07:46:31.130Z,66.10
2022-10-28T07:48:57.760Z,66.10
2022-10-28T07:51:24.546Z,66.10
2022-10-28T07:53:51.275Z,66.00
2022-10-28T07:56:18.355Z,65.90
2022-10-28T07:58:45.308Z,65.90
2022-10-28T08:01:16.862Z,65.90
2022-10-28T08:03:44.631Z,66.20
2022-10-28T08:06:17.487Z,66.10
2022-10-28T08:08:46.590Z,66.30
2022-10-28T08:11:23.644Z,66.50
2022-10-28T08:13:51.847Z,66.80
2022-10-28T08:16:18.758Z,66.50
2022-10-28T08:18:45.887Z,67.30
2022-10-28T08:21:13.655Z,66.90
2022-10-28T08:23:41.566Z,67.00
2022-10-28T08:26:08.582Z,67.20
2022-10-28T08:28:35.233Z,67.20
2022-10-28T08:31:08.517Z,67.30
2022-10-28T08:33:37.891Z,67.40
2022-10-28T08:36:05.501Z,67.50
2022-10-28T08:38:32.304Z,67.60
2022-10-28T08:41:33.011Z,67.60
2022-10-28T08:44:21.290Z,67.40
2022-10-28T08:46:56.919Z,67.10
2022-10-28T08:49:24.255Z,67.10
2022-10-28T08:52:15.996Z,67.20
2022-10-28T08:54:52.476Z,67.50
2022-10-28T08:57:44.372Z,68.30
2022-10-28T09:00:32.019Z,69.00
2022-10-28T09:03:08.388Z,68.90
2022-10-28T09:05:35.230Z,71.90
2022-10-28T09:08:02.668Z,75.90
2022-10-28T09:11:01.557Z,76.50
2022-10-28T09:13:51.800Z,71.60
2022-10-28T09:16:42.063Z,69.00
2022-10-28T09:19:39.012Z,65.20
2022-10-28T09:22:22.448Z,62.30
2022-10-28T09:25:01.688Z,61.20
2022-10-28T09:27:34.572Z,62.60
2022-10-28T09:30:36.987Z,65.70
2022-10-28T09:33:06.447Z,61.70
2022-10-28T09:35:39.913Z,62.90
2022-10-28T09:38:25.147Z,60.30
2022-10-28T09:41:00.756Z,57.10
2022-10-28T09:43:32.464Z,57.20
2022-10-28T09:46:06.127Z,57.20
2022-10-28T09:48:37.959Z,56.80
2022-10-28T09:51:05.116Z,56.00
2022-10-28T09:53:44.980Z,55.80
2022-10-28T09:56:11.761Z,55.40
2022-10-28T09:58:44.654Z,55.70
2022-10-28T10:01:11.453Z,54.50
2022-10-28T10:03:39.959Z,54.80
2022-10-28T10:06:18.112Z,54.10
2022-10-28T10:08:46.003Z,51.50
2022-10-28T10:11:21.296Z,52.10
2022-10-28T10:13:49.275Z,48.90
2022-10-28T10:16:36.664Z,48.90
2022-10-28T10:19:05.131Z,46.30
2022-10-28T10:21:49.793Z,47.50
2022-10-28T10:24:30.912Z,45.70
2022-10-28T10:27:20.578Z,45.20
2022-10-28T10:29:52.712Z,46.00
2022-10-28T10:32:31.758Z,44.80
2022-10-28T10:35:25.432Z,44.40
2022-10-28T10:37:55.741Z,43.30
2022-10-28T10:40:34.600Z,44.10
2022-10-28T10:43:29.214Z,43.50
2022-10-28T10:46:16.393Z,43.20
2022-10-28T10:48:43.796Z,43.80
2022-10-28T10:51:25.322Z,44.70
2022-10-28T10:53:56.067Z,44.30
2022-10-28T10:56:28.299Z,44.80
2022-10-28T10:58:57.724Z,44.30
2022-10-28T11:01:27.253Z,44.80
2022-10-28T11:04:14.902Z,43.90
2022-10-28T11:06:43.678Z,42.90
2022-10-28T11:09:27.146Z,44.40
2022-10-28T11:11:55.753Z,43.50
2022-10-28T11:14:32.439Z,44.80
2022-10-28T11:17:01.670Z,43.70
2022-10-28T11:19:33.622Z,43.20
2022-10-28T11:22:08.828Z,41.80
2022-10-28T11:24:44.613Z,42.00
2022-10-28T11:27:24.173Z,41.60
2022-10-28T11:29:51.370Z,41.80
2022-10-28T11:32:43.989Z,41.90
2022-10-28T11:35:40.134Z,41.30
2022-10-28T11:38:24.715Z,41.50
2022-10-28T11:41:06.318Z,41.50
2022-10-28T11:43:55.082Z,42.30
2022-10-28T11:46:28.812Z,41.80
2022-10-28T11:49:33.041Z,41.70
2022-10-28T11:52:07.899Z,41.20
2022-10-28T11:54:57.941Z,41.60
2022-10-28T11:57:36.024Z,41.20
2022-10-28T12:00:39.617Z,41.60
2022-10-28T12:03:09.116Z,41.50
2022-10-28T12:05:53.801Z,42.00
2022-10-28T12:08:26.560Z,40.90
2022-10-28T12:11:13.434Z,41.80
2022-10-28T12:13:49.543Z,40.90
2022-10-28T12:16:26.216Z,41.50
2022-10-28T12:18:59.263Z,40.80
2022-10-28T12:24:14.185Z,40.00
2022-10-28T12:26:51.970Z,40.00
2022-10-28T12:29:24.100Z,39.40
2022-10-28T12:32:08.567Z,40.30
2022-10-28T12:34:42.112Z,40.30
2022-10-28T12:37:14.702Z,40.80
2022-10-28T12:39:47.781Z,40.30
2022-10-28T12:42:20.332Z,40.30
2022-10-28T12:44:51.357Z,40.60
2022-10-28T12:47:45.210Z,40.90
2022-10-28T12:50:32.543Z,40.60
2022-10-28T12:53:21.598Z,40.40
2022-10-28T12:56:00.862Z,40.00
2022-10-28T12:58:49.594Z,40.10
2022-10-28T13:01:19.822Z,39.70
2022-10-28T13:03:49.104Z,40.10
2022-10-28T13:06:41.868Z,40.00
2022-10-28T13:09:40.910Z,39.50
2022-10-28T13:12:29.342Z,39.40
2022-10-28T13:15:11.473Z,39.40
2022-10-28T13:17:54.726Z,38.40
2022-10-28T13:20:47.010Z,38.10
2022-10-28T13:23:22.809Z,38.20
2022-10-28T13:26:43.771Z,38.40
2022-10-28T13:29:24.873Z,38.20
2022-10-28T13:31:53.310Z,38.40
2022-10-28T13:34:29.611Z,38.80
2022-10-28T13:36:59.486Z,39.00
2022-10-28T13:39:29.121Z,38.70
2022-10-28T13:42:25.446Z,38.80
2022-10-28T13:45:02.042Z,39.00
2022-10-28T13:47:34.285Z,39.20
2022-10-28T13:50:09.723Z,39.40
2022-10-28T13:52:37.689Z,39.50
2022-10-28T13:55:21.437Z,39.40
2022-10-28T13:57:51.758Z,39.60
2022-10-28T14:00:18.633Z,39.50
2022-10-28T14:02:57.524Z,39.90
2022-10-28T14:05:36.424Z,40.20
2022-10-28T14:08:16.800Z,40.50
2022-10-28T14:11:04.504Z,40.30
2022-10-28T14:13:47.120Z,40.40
2022-10-28T14:16:19.940Z,40.70
2022-10-28T14:19:00.813Z,40.50
2022-10-28T14:21:46.955Z,39.70
2022-10-28T14:24:31.588Z,39.60
2022-10-28T14:27:07.847Z,40.00
2022-10-28T14:29:56.548Z,40.10
2022-10-28T14:32:34.869Z,39.90
2022-10-28T14:35:23.963Z,39.90
2022-10-28T14:38:11.609Z,40.00
2022-10-28T14:40:44.397Z,40.10
2022-10-28T14:43:27.865Z,40.10
2022-10-28T14:46:27.362Z,40.00
2022-10-28T14:48:57.254Z,40.20
2022-10-28T14:51:27.475Z,40.10
2022-10-28T14:53:58.620Z,40.10
2022-10-28T14:56:30.508Z,40.20
2022-10-28T14:59:40.448Z,40.40
2022-10-28T15:02:16.658Z,40.50
2022-10-28T15:04:46.219Z,40.70
2022-10-28T15:07:18.940Z,40.60
2022-10-28T15:09:53.553Z,41.00
2022-10-28T15:12:22.631Z,41.00
2022-10-28T15:14:56.964Z,41.10
2022-10-28T15:17:29.357Z,41.20
2022-10-28T15:19:58.537Z,41.50
2022-10-28T15:22:25.196Z,41.50
2022-10-28T15:24:54.776Z,41.50
2022-10-28T15:27:22.447Z,41.80
2022-10-28T15:29:50.335Z,41.90
2022-10-28T15:32:19.788Z,42.00
2022-10-28T15:34:47.014Z,42.20
2022-10-28T15:37:22.781Z,42.10
2022-10-28T15:39:52.289Z,42.60
2022-10-28T15:42:34.405Z,42.30
2022-10-28T15:45:01.336Z,42.80
2022-10-28T15:47:33.150Z,42.60
2022-10-28T15:50:26.259Z,42.70
2022-10-28T15:52:57.410Z,42.90
2022-10-28T15:55:35.972Z,42.90
2022-10-28T15:58:19.312Z,43.20
2022-10-28T16:00:55.081Z,43.10
2022-10-28T16:03:40.882Z,43.50
2022-10-28T16:06:31.950Z,43.00
2022-10-28T16:09:01.861Z,43.90
2022-10-28T16:11:30.398Z,43.20
2022-10-28T16:13:58.056Z,43.10
2022-10-28T16:16:27.842Z,43.30
2022-10-28T16:19:24.294Z,43.50
2022-10-28T16:21:51.051Z,43.90
2022-10-28T16:24:17.660Z,43.40
2022-10-28T16:26:44.500Z,43.60
2022-10-28T16:29:11.165Z,43.60
2022-10-28T16:31:38.064Z,43.70
2022-10-28T16:34:05.099Z,43.60
2022-10-28T16:36:32.269Z,43.70
2022-10-28T16:38:59.034Z,43.60
2022-10-28T16:41:25.856Z,43.80
2022-10-28T16:43:52.941Z,43.80
2022-10-28T16:46:19.936Z,44.00
2022-10-28T16:48:47.081Z,44.00
2022-10-28T16:51:17.871Z,44.00
2022-10-28T16:53:47.489Z,44.30
2022-10-28T16:56:18.166Z,44.30
2022-10-28T16:58:46.080Z,44.50
2022-10-28T17:01:17.742Z,44.40
2022-10-28T17:03:44.460Z,44.60
2022-10-28T17:06:11.177Z,44.60
2022-10-28T17:09:01.401Z,44.70
2022-10-28T17:11:24.852Z,44.80
2022-10-28T17:13:51.554Z,44.90
2022-10-28T17:16:18.409Z,45.00
2022-10-28T17:18:46.555Z,45.10
2022-10-28T17:21:13.135Z,45.20
2022-10-28T17:23:39.928Z,45.30
2022-10-28T17:26:06.674Z,45.50
2022-10-28T17:28:33.348Z,45.60
2022-10-28T17:31:07.682Z,45.70
2022-10-28T17:33:34.978Z,46.10
2022-10-28T17:36:03.617Z,45.90
2022-10-28T17:38:30.373Z,46.00
2022-10-28T17:40:58.253Z,46.10
2022-10-28T17:43:25.085Z,46.30
2022-10-28T17:45:52.187Z,46.40
2022-10-28T17:48:18.851Z,46.50
2022-10-28T17:50:54.122Z,46.60
2022-10-28T17:53:21.988Z,47.00
2022-10-28T17:55:58.965Z,46.70
2022-10-28T17:58:26.277Z,47.30
2022-10-28T18:01:01.112Z,46.90
2022-10-28T18:03:31.554Z,47.40
2022-10-28T18:06:13.116Z,47.20
2022-10-28T18:08:42.465Z,47.40
2022-10-28T18:11:12.810Z,47.40
2022-10-28T18:13:41.916Z,47.50
2022-10-28T18:16:10.166Z,47.60
2022-10-28T18:18:41.134Z,47.60
2022-10-28T18:21:13.855Z,47.80
2022-10-28T18:23:41.064Z,47.90
2022-10-28T18:26:15.104Z,47.90
2022-10-28T18:28:43.484Z,48.40
2022-10-28T18:31:19.210Z,48.10
2022-10-28T18:33:47.062Z,48.50
2022-10-28T18:36:20.135Z,48.30
2022-10-28T18:38:47.214Z,48.50
2022-10-28T18:41:19.786Z,48.50
2022-10-28T18:43:47.156Z,48.80
2022-10-28T18:46:14.449Z,48.80
2022-10-28T18:48:41.528Z,48.90
2022-10-28T18:51:11.370Z,48.90
2022-10-28T18:53:40.637Z,49.30
2022-10-28T18:56:10.332Z,49.10
2022-10-28T18:58:37.117Z,49.20
2022-10-28T19:01:08.250Z,49.20
2022-10-28T19:03:35.229Z,49.50
2022-10-28T19:06:07.079Z,49.40
2022-10-28T19:08:34.073Z,49.50
2022-10-28T19:11:01.948Z,49.60
2022-10-28T19:13:29.437Z,49.80
2022-10-28T19:15:56.112Z,49.80
2022-10-28T19:18:22.997Z,49.90
2022-10-28T19:20:50.584Z,49.90
2022-10-28T19:23:18.106Z,50.10
2022-10-28T19:25:54.954Z,50.20
2022-10-28T19:28:27.657Z,50.80
2022-10-28T19:31:02.863Z,50.40
2022-10-28T19:33:31.450Z,50.90
2022-10-28T19:36:14.398Z,50.60
2022-10-28T19:38:41.218Z,51.30
2022-10-28T19:41:12.850Z,50.70
2022-10-28T19:43:39.754Z,51.10
2022-10-28T19:46:13.344Z,51.00
2022-10-28T19:48:42.420Z,51.20
2022-10-28T19:51:15.072Z,51.20
2022-10-28T19:53:46.492Z,51.40
2022-10-28T19:58:56.763Z,51.40
2022-10-28T20:01:25.163Z,52.00
2022-10-28T20:03:52.843Z,51.60
2022-10-28T20:06:22.496Z,51.60
2022-10-28T20:08:49.933Z,51.80
2022-10-28T20:11:25.774Z,51.80
2022-10-28T20:13:55.488Z,52.10
2022-10-28T20:16:23.158Z,52.00
2022-10-28T20:18:50.514Z,51.90
2022-10-28T20:21:18.960Z,52.00
2022-10-28T20:26:17.009Z,52.20
2022-10-28T20:28:43.890Z,52.20
2022-10-28T20:31:17.499Z,52.30
2022-10-28T20:33:49.585Z,52.60
2022-10-28T20:36:37.260Z,52.40
2022-10-28T20:39:09.571Z,52.90
2022-10-28T20:41:37.801Z,52.60
2022-10-28T20:44:05.726Z,52.60
2022-10-28T20:46:32.971Z,52.70
2022-10-28T20:49:00.955Z,52.70
2022-10-28T20:51:32.055Z,52.70
2022-10-28T20:54:00.024Z,52.90
2022-10-28T20:56:28.893Z,52.90
2022-10-28T20:58:57.699Z,53.00
2022-10-28T21:01:35.877Z,53.10
2022-10-28T21:04:05.597Z,53.80
2022-10-28T21:06:33.240Z,53.20
2022-10-28T21:09:00.264Z,53.30
2022-10-28T21:11:28.213Z,53.40
2022-10-28T21:13:58.440Z,53.40
2022-10-28T21:16:26.355Z,53.50
2022-10-28T21:18:53.852Z,53.50
2022-10-28T21:21:21.960Z,53.50
2022-10-28T21:23:48.751Z,53.60
2022-10-28T21:26:15.428Z,53.60
2022-10-28T21:28:42.417Z,53.60
2022-10-28T21:31:12.138Z,53.80
2022-10-28T21:33:40.381Z,53.80
2022-10-28T21:36:10.865Z,53.70
2022-10-28T21:38:37.812Z,53.80
2022-10-28T21:41:11.375Z,53.70
2022-10-28T21:43:40.367Z,54.00
2022-10-28T21:46:07.476Z,53.90
2022-10-28T21:48:35.738Z,53.90
2022-10-28T21:51:06.339Z,53.90
2022-10-28T21:53:37.362Z,54.00
2022-10-28T21:56:05.962Z,54.00
2022-10-28T21:58:32.830Z,54.00
2022-10-28T22:01:08.758Z,54.00
2022-10-28T22:03:35.862Z,54.30
2022-10-28T22:06:02.664Z,54.10
2022-10-28T22:08:29.575Z,54.10
2022-10-28T22:11:12.359Z,54.20
2022-10-28T22:13:39.235Z,55.10
2022-10-28T22:16:11.725Z,54.20
2022-10-28T22:18:39.216Z,54.40
2022-10-28T22:21:07.710Z,54.40
2022-10-28T22:23:34.532Z,54.50
2022-10-28T22:26:06.528Z,54.50
2022-10-28T22:28:33.995Z,54.60
2022-10-28T22:31:06.885Z,54.70
2022-10-28T22:33:33.710Z,55.00
2022-10-28T22:36:06.056Z,54.70
2022-10-28T22:38:32.989Z,55.10
2022-10-28T22:41:25.371Z,54.80
2022-10-28T22:43:58.034Z,55.10
2022-10-28T22:46:27.525Z,55.10
2022-10-28T22:48:54.703Z,55.00
2022-10-28T22:51:22.008Z,55.00
2022-10-28T22:53:49.518Z,55.00
2022-10-28T22:56:20.228Z,55.00
2022-10-28T22:58:48.425Z,55.10
2022-10-28T23:01:17.463Z,55.00
2022-10-28T23:03:46.297Z,55.10
2022-10-28T23:06:15.025Z,55.10
2022-10-28T23:08:44.756Z,55.20
2022-10-28T23:11:12.420Z,55.20
2022-10-28T23:13:39.603Z,55.20
2022-10-28T23:16:14.919Z,55.30
2022-10-28T23:18:42.674Z,55.40
2022-10-28T23:21:28.143Z,55.40
2022-10-28T23:23:56.817Z,55.90
2022-10-28T23:26:24.216Z,55.40
2022-10-28T23:28:55.884Z,55.40
2022-10-28T23:31:23.396Z,55.50
2022-10-28T23:33:50.789Z,55.50
2022-10-28T23:36:17.842Z,55.50
2022-10-28T23:38:44.568Z,55.50
2022-10-28T23:41:15.558Z,55.60
2022-10-28T23:43:42.909Z,55.60
2022-10-28T23:46:10.144Z,55.60
2022-10-28T23:48:37.069Z,55.70
2022-10-28T23:51:04.224Z,55.80
2022-10-28T23:53:31.388Z,55.90
2022-10-28T23:55:58.688Z,55.80
2022-10-28T23:58:25.558Z,55.90
